sensor_id;sensor_type;location;lat;lon;timestamp;P1;durP1;ratioP1;P2;durP2;ratioP2
17494;SDS011;8864;51.970;4.614;2023-11-21T00:00:10;9.88;;;3.47;;
17494;SDS011;8864;51.970;4.614;2023-11-21T00:02:37;8.60;;;3.60;;
17494;SDS011;8864;51.970;4.614;2023-11-21T00:05:05;6.80;;;3.03;;
17494;SDS011;8864;51.970;4.614;2023-11-21T00:07:34;13.95;;;3.45;;
17494;SDS011;8864;51.970;4.614;2023-11-21T00:10:01;9.15;;;3.17;;
17494;SDS011;8864;51.970;4.614;2023-11-21T00:12:30;9.13;;;3.33;;
17494;SDS011;8864;51.970;4.614;2023-11-21T00:14:57;8.00;;;2.85;;
17494;SDS011;8864;51.970;4.614;2023-11-21T00:17:23;6.97;;;3.13;;
17494;SDS011;8864;51.970;4.614;2023-11-21T00:19:50;7.60;;;3.13;;
17494;SDS011;8864;51.970;4.614;2023-11-21T00:22:18;9.60;;;3.42;;
17494;SDS011;8864;51.970;4.614;2023-11-21T00:24:46;5.82;;;2.75;;
17494;SDS011;8864;51.970;4.614;2023-11-21T00:27:14;7.22;;;2.78;;
17494;SDS011;8864;51.970;4.614;2023-11-21T00:29:40;7.70;;;3.00;;
17494;SDS011;8864;51.970;4.614;2023-11-21T00:32:07;7.72;;;3.15;;
17494;SDS011;8864;51.970;4.614;2023-11-21T00:34:35;7.10;;;3.10;;
17494;SDS011;8864;51.970;4.614;2023-11-21T00:37:02;10.32;;;3.05;;
17494;SDS011;8864;51.970;4.614;2023-11-21T00:39:29;6.10;;;2.80;;
17494;SDS011;8864;51.970;4.614;2023-11-21T00:41:59;4.45;;;3.00;;
17494;SDS011;8864;51.970;4.614;2023-11-21T00:44:26;8.52;;;2.80;;
17494;SDS011;8864;51.970;4.614;2023-11-21T00:46:53;6.18;;;2.95;;
17494;SDS011;8864;51.970;4.614;2023-11-21T00:49:20;9.23;;;3.05;;
17494;SDS011;8864;51.970;4.614;2023-11-21T00:51:47;6.63;;;2.60;;
17494;SDS011;8864;51.970;4.614;2023-11-21T00:54:14;6.93;;;3.00;;
17494;SDS011;8864;51.970;4.614;2023-11-21T00:56:42;7.00;;;2.88;;
17494;SDS011;8864;51.970;4.614;2023-11-21T00:59:10;5.22;;;2.35;;
17494;SDS011;8864;51.970;4.614;2023-11-21T01:01:37;6.82;;;3.10;;
17494;SDS011;8864;51.970;4.614;2023-11-21T01:04:04;5.03;;;2.30;;
17494;SDS011;8864;51.970;4.614;2023-11-21T01:06:31;7.82;;;2.80;;
17494;SDS011;8864;51.970;4.614;2023-11-21T01:08:58;5.00;;;2.63;;
17494;SDS011;8864;51.970;4.614;2023-11-21T01:11:26;7.60;;;2.33;;
17494;SDS011;8864;51.970;4.614;2023-11-21T01:13:53;7.68;;;3.17;;
17494;SDS011;8864;51.970;4.614;2023-11-21T01:16:21;7.22;;;2.83;;
17494;SDS011;8864;51.970;4.614;2023-11-21T01:18:49;5.00;;;2.60;;
17494;SDS011;8864;51.970;4.614;2023-11-21T01:21:16;7.20;;;2.47;;
17494;SDS011;8864;51.970;4.614;2023-11-21T01:23:43;6.60;;;2.92;;
17494;SDS011;8864;51.970;4.614;2023-11-21T01:26:10;5.00;;;2.60;;
17494;SDS011;8864;51.970;4.614;2023-11-21T01:28:37;9.30;;;3.20;;
17494;SDS011;8864;51.970;4.614;2023-11-21T01:31:04;3.60;;;2.30;;
17494;SDS011;8864;51.970;4.614;2023-11-21T01:33:33;6.28;;;2.60;;
17494;SDS011;8864;51.970;4.614;2023-11-21T01:36:00;7.50;;;2.50;;
17494;SDS011;8864;51.970;4.614;2023-11-21T01:38:27;5.40;;;2.55;;
17494;SDS011;8864;51.970;4.614;2023-11-21T01:40:54;6.63;;;2.65;;
17494;SDS011;8864;51.970;4.614;2023-11-21T01:43:21;4.65;;;2.30;;
17494;SDS011;8864;51.970;4.614;2023-11-21T01:45:48;9.43;;;2.55;;
17494;SDS011;8864;51.970;4.614;2023-11-21T01:48:15;5.78;;;2.50;;
17494;SDS011;8864;51.970;4.614;2023-11-21T01:50:43;5.82;;;2.40;;
17494;SDS011;8864;51.970;4.614;2023-11-21T01:53:11;5.30;;;2.70;;
17494;SDS011;8864;51.970;4.614;2023-11-21T01:55:39;6.03;;;2.53;;
17494;SDS011;8864;51.970;4.614;2023-11-21T01:58:07;4.43;;;2.42;;
17494;SDS011;8864;51.970;4.614;2023-11-21T02:00:35;5.28;;;2.78;;
17494;SDS011;8864;51.970;4.614;2023-11-21T02:03:03;6.93;;;2.55;;
17494;SDS011;8864;51.970;4.614;2023-11-21T02:05:32;7.80;;;2.60;;
17494;SDS011;8864;51.970;4.614;2023-11-21T02:08:00;5.63;;;2.80;;
17494;SDS011;8864;51.970;4.614;2023-11-21T02:10:28;6.80;;;2.65;;
17494;SDS011;8864;51.970;4.614;2023-11-21T02:12:56;4.47;;;2.40;;
17494;SDS011;8864;51.970;4.614;2023-11-21T02:15:23;7.40;;;2.80;;
17494;SDS011;8864;51.970;4.614;2023-11-21T02:17:53;7.78;;;2.60;;
17494;SDS011;8864;51.970;4.614;2023-11-21T02:20:23;7.32;;;2.60;;
17494;SDS011;8864;51.970;4.614;2023-11-21T02:22:53;4.65;;;2.60;;
17494;SDS011;8864;51.970;4.614;2023-11-21T02:25:23;6.47;;;2.45;;
17494;SDS011;8864;51.970;4.614;2023-11-21T02:27:50;8.75;;;2.60;;
17494;SDS011;8864;51.970;4.614;2023-11-21T02:30:17;6.82;;;2.28;;
17494;SDS011;8864;51.970;4.614;2023-11-21T02:32:44;5.70;;;2.78;;
17494;SDS011;8864;51.970;4.614;2023-11-21T02:35:11;4.88;;;2.30;;
17494;SDS011;8864;51.970;4.614;2023-11-21T02:37:38;8.80;;;2.10;;
17494;SDS011;8864;51.970;4.614;2023-11-21T02:40:08;6.75;;;2.40;;
17494;SDS011;8864;51.970;4.614;2023-11-21T02:42:37;7.97;;;3.03;;
17494;SDS011;8864;51.970;4.614;2023-11-21T02:45:06;8.10;;;2.38;;
17494;SDS011;8864;51.970;4.614;2023-11-21T02:47:33;7.60;;;2.47;;
17494;SDS011;8864;51.970;4.614;2023-11-21T02:50:00;4.60;;;2.13;;
17494;SDS011;8864;51.970;4.614;2023-11-21T02:52:27;5.07;;;2.72;;
17494;SDS011;8864;51.970;4.614;2023-11-21T02:54:55;4.43;;;2.30;;
17494;SDS011;8864;51.970;4.614;2023-11-21T02:57:23;4.80;;;2.10;;
17494;SDS011;8864;51.970;4.614;2023-11-21T02:59:50;7.25;;;1.98;;
17494;SDS011;8864;51.970;4.614;2023-11-21T03:02:17;5.60;;;2.30;;
17494;SDS011;8864;51.970;4.614;2023-11-21T03:04:44;6.57;;;2.08;;
17494;SDS011;8864;51.970;4.614;2023-11-21T03:07:13;4.72;;;2.22;;
17494;SDS011;8864;51.970;4.614;2023-11-21T03:09:40;3.90;;;2.20;;
17494;SDS011;8864;51.970;4.614;2023-11-21T03:12:07;5.30;;;2.10;;
17494;SDS011;8864;51.970;4.614;2023-11-21T03:14:38;5.97;;;2.05;;
17494;SDS011;8864;51.970;4.614;2023-11-21T03:17:05;4.38;;;1.98;;
17494;SDS011;8864;51.970;4.614;2023-11-21T03:19:32;4.18;;;2.15;;
17494;SDS011;8864;51.970;4.614;2023-11-21T03:21:59;6.13;;;2.33;;
17494;SDS011;8864;51.970;4.614;2023-11-21T03:24:26;6.45;;;2.33;;
17494;SDS011;8864;51.970;4.614;2023-11-21T03:26:53;5.05;;;2.22;;
17494;SDS011;8864;51.970;4.614;2023-11-21T03:29:20;6.03;;;2.42;;
17494;SDS011;8864;51.970;4.614;2023-11-21T03:31:48;8.00;;;2.25;;
17494;SDS011;8864;51.970;4.614;2023-11-21T03:34:16;3.80;;;2.20;;
17494;SDS011;8864;51.970;4.614;2023-11-21T03:36:49;6.15;;;2.28;;
17494;SDS011;8864;51.970;4.614;2023-11-21T03:39:17;5.25;;;2.00;;
17494;SDS011;8864;51.970;4.614;2023-11-21T03:41:45;4.03;;;2.15;;
17494;SDS011;8864;51.970;4.614;2023-11-21T03:44:12;5.43;;;1.85;;
17494;SDS011;8864;51.970;4.614;2023-11-21T03:46:39;4.78;;;1.67;;
17494;SDS011;8864;51.970;4.614;2023-11-21T03:49:08;3.92;;;2.05;;
17494;SDS011;8864;51.970;4.614;2023-11-21T03:51:35;7.55;;;2.50;;
17494;SDS011;8864;51.970;4.614;2023-11-21T03:54:02;5.25;;;2.03;;
17494;SDS011;8864;51.970;4.614;2023-11-21T03:56:30;5.05;;;2.20;;
17494;SDS011;8864;51.970;4.614;2023-11-21T03:58:56;4.50;;;1.88;;
17494;SDS011;8864;51.970;4.614;2023-11-21T04:01:24;8.93;;;2.00;;
17494;SDS011;8864;51.970;4.614;2023-11-21T04:03:51;4.55;;;1.85;;
17494;SDS011;8864;51.970;4.614;2023-11-21T04:06:19;5.15;;;2.08;;
17494;SDS011;8864;51.970;4.614;2023-11-21T04:08:46;7.10;;;2.22;;
17494;SDS011;8864;51.970;4.614;2023-11-21T04:11:13;3.88;;;2.05;;
17494;SDS011;8864;51.970;4.614;2023-11-21T04:13:40;5.63;;;1.80;;
17494;SDS011;8864;51.970;4.614;2023-11-21T04:16:08;11.00;;;2.28;;
17494;SDS011;8864;51.970;4.614;2023-11-21T04:18:36;4.75;;;2.08;;
17494;SDS011;8864;51.970;4.614;2023-11-21T04:21:03;4.90;;;1.85;;
17494;SDS011;8864;51.970;4.614;2023-11-21T04:23:32;7.25;;;2.28;;
17494;SDS011;8864;51.970;4.614;2023-11-21T04:26:00;5.38;;;1.80;;
17494;SDS011;8864;51.970;4.614;2023-11-21T04:28:27;5.28;;;2.10;;
17494;SDS011;8864;51.970;4.614;2023-11-21T04:30:54;4.57;;;2.05;;
17494;SDS011;8864;51.970;4.614;2023-11-21T04:33:20;5.20;;;1.90;;
17494;SDS011;8864;51.970;4.614;2023-11-21T04:35:47;5.65;;;1.83;;
17494;SDS011;8864;51.970;4.614;2023-11-21T04:38:14;6.30;;;2.17;;
17494;SDS011;8864;51.970;4.614;2023-11-21T04:40:42;6.03;;;2.00;;
17494;SDS011;8864;51.970;4.614;2023-11-21T04:43:09;5.22;;;2.15;;
17494;SDS011;8864;51.970;4.614;2023-11-21T04:45:36;4.30;;;1.77;;
17494;SDS011;8864;51.970;4.614;2023-11-21T04:48:03;3.22;;;1.83;;
17494;SDS011;8864;51.970;4.614;2023-11-21T04:50:31;4.50;;;2.03;;
17494;SDS011;8864;51.970;4.614;2023-11-21T04:53:00;3.60;;;1.35;;
17494;SDS011;8864;51.970;4.614;2023-11-21T04:55:27;5.53;;;1.67;;
17494;SDS011;8864;51.970;4.614;2023-11-21T04:57:58;3.65;;;1.65;;
17494;SDS011;8864;51.970;4.614;2023-11-21T05:00:25;4.47;;;1.80;;
17494;SDS011;8864;51.970;4.614;2023-11-21T05:02:52;6.25;;;1.73;;
17494;SDS011;8864;51.970;4.614;2023-11-21T05:05:19;3.38;;;1.70;;
17494;SDS011;8864;51.970;4.614;2023-11-21T05:07:46;3.65;;;1.67;;
17494;SDS011;8864;51.970;4.614;2023-11-21T05:10:14;4.70;;;1.80;;
17494;SDS011;8864;51.970;4.614;2023-11-21T05:12:41;4.05;;;1.50;;
17494;SDS011;8864;51.970;4.614;2023-11-21T05:15:10;3.60;;;1.60;;
17494;SDS011;8864;51.970;4.614;2023-11-21T05:17:40;5.18;;;1.67;;
17494;SDS011;8864;51.970;4.614;2023-11-21T05:20:08;5.70;;;1.92;;
17494;SDS011;8864;51.970;4.614;2023-11-21T05:22:37;5.45;;;1.50;;
17494;SDS011;8864;51.970;4.614;2023-11-21T05:25:04;4.43;;;1.50;;
17494;SDS011;8864;51.970;4.614;2023-11-21T05:27:33;3.20;;;1.50;;
17494;SDS011;8864;51.970;4.614;2023-11-21T05:30:01;3.55;;;1.58;;
17494;SDS011;8864;51.970;4.614;2023-11-21T05:32:31;3.70;;;1.67;;
17494;SDS011;8864;51.970;4.614;2023-11-21T05:34:58;3.28;;;1.70;;
17494;SDS011;8864;51.970;4.614;2023-11-21T05:37:26;4.38;;;1.50;;
17494;SDS011;8864;51.970;4.614;2023-11-21T05:39:52;3.33;;;1.60;;
17494;SDS011;8864;51.970;4.614;2023-11-21T05:42:21;3.42;;;1.65;;
17494;SDS011;8864;51.970;4.614;2023-11-21T05:44:48;4.40;;;1.65;;
17494;SDS011;8864;51.970;4.614;2023-11-21T05:47:15;2.55;;;1.35;;
17494;SDS011;8864;51.970;4.614;2023-11-21T05:49:43;2.78;;;1.45;;
17494;SDS011;8864;51.970;4.614;2023-11-21T05:52:15;4.47;;;1.60;;
17494;SDS011;8864;51.970;4.614;2023-11-21T05:54:42;3.10;;;1.30;;
17494;SDS011;8864;51.970;4.614;2023-11-21T05:57:09;3.30;;;1.77;;
17494;SDS011;8864;51.970;4.614;2023-11-21T05:59:35;3.00;;;1.38;;
17494;SDS011;8864;51.970;4.614;2023-11-21T06:02:02;3.50;;;1.65;;
17494;SDS011;8864;51.970;4.614;2023-11-21T06:04:30;3.17;;;1.63;;
17494;SDS011;8864;51.970;4.614;2023-11-21T06:06:58;2.58;;;1.58;;
17494;SDS011;8864;51.970;4.614;2023-11-21T06:09:25;3.58;;;1.50;;
17494;SDS011;8864;51.970;4.614;2023-11-21T06:11:52;1.75;;;1.20;;
17494;SDS011;8864;51.970;4.614;2023-11-21T06:14:19;4.07;;;1.58;;
17494;SDS011;8864;51.970;4.614;2023-11-21T06:16:46;3.42;;;1.30;;
17494;SDS011;8864;51.970;4.614;2023-11-21T06:19:16;2.97;;;1.50;;
17494;SDS011;8864;51.970;4.614;2023-11-21T06:21:45;2.05;;;1.30;;
17494;SDS011;8864;51.970;4.614;2023-11-21T06:24:13;2.13;;;1.30;;
17494;SDS011;8864;51.970;4.614;2023-11-21T06:26:41;3.83;;;1.30;;
17494;SDS011;8864;51.970;4.614;2023-11-21T06:29:09;3.80;;;1.60;;
17494;SDS011;8864;51.970;4.614;2023-11-21T06:31:36;3.58;;;1.23;;
17494;SDS011;8864;51.970;4.614;2023-11-21T06:34:03;2.00;;;1.38;;
17494;SDS011;8864;51.970;4.614;2023-11-21T06:36:29;5.32;;;1.45;;
17494;SDS011;8864;51.970;4.614;2023-11-21T06:38:56;2.88;;;1.35;;
17494;SDS011;8864;51.970;4.614;2023-11-21T06:41:25;2.00;;;1.35;;
17494;SDS011;8864;51.970;4.614;2023-11-21T06:43:51;3.15;;;1.20;;
17494;SDS011;8864;51.970;4.614;2023-11-21T06:46:18;4.32;;;1.27;;
17494;SDS011;8864;51.970;4.614;2023-11-21T06:48:45;5.60;;;1.58;;
17494;SDS011;8864;51.970;4.614;2023-11-21T06:51:13;5.18;;;1.52;;
17494;SDS011;8864;51.970;4.614;2023-11-21T06:53:40;4.47;;;1.50;;
17494;SDS011;8864;51.970;4.614;2023-11-21T06:56:14;2.40;;;1.30;;
17494;SDS011;8864;51.970;4.614;2023-11-21T06:58:43;4.15;;;1.17;;
17494;SDS011;8864;51.970;4.614;2023-11-21T07:01:11;4.75;;;1.10;;
17494;SDS011;8864;51.970;4.614;2023-11-21T07:03:38;2.22;;;1.10;;
17494;SDS011;8864;51.970;4.614;2023-11-21T07:06:06;7.75;;;1.75;;
17494;SDS011;8864;51.970;4.614;2023-11-21T07:08:34;6.72;;;0.90;;
17494;SDS011;8864;51.970;4.614;2023-11-21T07:11:02;2.67;;;1.00;;
17494;SDS011;8864;51.970;4.614;2023-11-21T07:13:29;3.17;;;1.40;;
17494;SDS011;8864;51.970;4.614;2023-11-21T07:15:57;2.55;;;1.13;;
17494;SDS011;8864;51.970;4.614;2023-11-21T07:18:24;2.60;;;1.20;;
17494;SDS011;8864;51.970;4.614;2023-11-21T07:20:51;2.78;;;1.05;;
17494;SDS011;8864;51.970;4.614;2023-11-21T07:23:18;1.70;;;1.10;;
17494;SDS011;8864;51.970;4.614;2023-11-21T07:25:47;3.80;;;1.20;;
17494;SDS011;8864;51.970;4.614;2023-11-21T07:28:14;2.97;;;1.05;;
17494;SDS011;8864;51.970;4.614;2023-11-21T07:30:41;3.63;;;1.30;;
17494;SDS011;8864;51.970;4.614;2023-11-21T07:33:09;2.67;;;0.90;;
17494;SDS011;8864;51.970;4.614;2023-11-21T07:35:36;3.92;;;1.27;;
17494;SDS011;8864;51.970;4.614;2023-11-21T07:38:03;4.45;;;1.00;;
17494;SDS011;8864;51.970;4.614;2023-11-21T07:40:30;3.67;;;0.95;;
17494;SDS011;8864;51.970;4.614;2023-11-21T07:42:57;2.30;;;0.93;;
17494;SDS011;8864;51.970;4.614;2023-11-21T07:45:24;2.25;;;1.20;;
17494;SDS011;8864;51.970;4.614;2023-11-21T07:47:52;3.17;;;1.20;;
17494;SDS011;8864;51.970;4.614;2023-11-21T07:50:21;2.85;;;0.98;;
17494;SDS011;8864;51.970;4.614;2023-11-21T07:52:48;2.17;;;1.08;;
17494;SDS011;8864;51.970;4.614;2023-11-21T07:55:15;3.90;;;1.10;;
17494;SDS011;8864;51.970;4.614;2023-11-21T07:57:42;5.30;;;1.10;;
17494;SDS011;8864;51.970;4.614;2023-11-21T08:00:09;3.17;;;0.93;;
17494;SDS011;8864;51.970;4.614;2023-11-21T08:02:37;5.18;;;1.10;;
17494;SDS011;8864;51.970;4.614;2023-11-21T08:05:07;3.15;;;1.20;;
17494;SDS011;8864;51.970;4.614;2023-11-21T08:07:37;2.35;;;0.85;;
17494;SDS011;8864;51.970;4.614;2023-11-21T08:10:04;8.10;;;1.52;;
17494;SDS011;8864;51.970;4.614;2023-11-21T08:12:35;5.40;;;1.05;;
17494;SDS011;8864;51.970;4.614;2023-11-21T08:15:02;1.67;;;0.90;;
17494;SDS011;8864;51.970;4.614;2023-11-21T08:17:30;2.15;;;1.20;;
17494;SDS011;8864;51.970;4.614;2023-11-21T08:19:58;5.03;;;1.27;;
17494;SDS011;8864;51.970;4.614;2023-11-21T08:22:24;3.85;;;1.25;;
17494;SDS011;8864;51.970;4.614;2023-11-21T08:24:53;7.50;;;1.20;;
17494;SDS011;8864;51.970;4.614;2023-11-21T08:27:21;4.15;;;1.00;;
17494;SDS011;8864;51.970;4.614;2023-11-21T08:29:48;5.15;;;1.27;;
17494;SDS011;8864;51.970;4.614;2023-11-21T08:32:15;4.95;;;1.10;;
17494;SDS011;8864;51.970;4.614;2023-11-21T08:34:42;4.00;;;1.10;;
17494;SDS011;8864;51.970;4.614;2023-11-21T08:37:10;2.58;;;1.20;;
17494;SDS011;8864;51.970;4.614;2023-11-21T08:39:37;2.65;;;0.98;;
17494;SDS011;8864;51.970;4.614;2023-11-21T08:42:05;2.65;;;1.00;;
17494;SDS011;8864;51.970;4.614;2023-11-21T08:44:33;3.33;;;1.00;;
17494;SDS011;8864;51.970;4.614;2023-11-21T08:47:00;4.45;;;1.23;;
17494;SDS011;8864;51.970;4.614;2023-11-21T08:49:27;2.88;;;0.80;;
17494;SDS011;8864;51.970;4.614;2023-11-21T08:51:55;3.13;;;1.00;;
17494;SDS011;8864;51.970;4.614;2023-11-21T08:54:24;1.67;;;0.77;;
17494;SDS011;8864;51.970;4.614;2023-11-21T08:56:51;2.45;;;1.20;;
17494;SDS011;8864;51.970;4.614;2023-11-21T08:59:19;4.55;;;1.10;;
17494;SDS011;8864;51.970;4.614;2023-11-21T09:01:46;4.55;;;0.85;;
17494;SDS011;8864;51.970;4.614;2023-11-21T09:04:13;3.85;;;1.15;;
17494;SDS011;8864;51.970;4.614;2023-11-21T09:06:40;2.80;;;1.00;;
17494;SDS011;8864;51.970;4.614;2023-11-21T09:09:07;5.53;;;1.20;;
17494;SDS011;8864;51.970;4.614;2023-11-21T09:11:35;3.38;;;1.17;;
17494;SDS011;8864;51.970;4.614;2023-11-21T09:14:02;6.47;;;1.08;;
17494;SDS011;8864;51.970;4.614;2023-11-21T09:16:30;2.80;;;1.00;;
17494;SDS011;8864;51.970;4.614;2023-11-21T09:18:58;5.75;;;1.75;;
17494;SDS011;8864;51.970;4.614;2023-11-21T09:21:25;2.40;;;1.13;;
17494;SDS011;8864;51.970;4.614;2023-11-21T09:23:52;4.38;;;1.27;;
17494;SDS011;8864;51.970;4.614;2023-11-21T09:26:19;4.10;;;1.20;;
17494;SDS011;8864;51.970;4.614;2023-11-21T09:28:46;4.68;;;1.08;;
17494;SDS011;8864;51.970;4.614;2023-11-21T09:31:13;3.92;;;1.30;;
17494;SDS011;8864;51.970;4.614;2023-11-21T09:33:42;12.00;;;1.63;;
17494;SDS011;8864;51.970;4.614;2023-11-21T09:36:12;6.47;;;1.15;;
17494;SDS011;8864;51.970;4.614;2023-11-21T09:38:40;8.35;;;1.30;;
17494;SDS011;8864;51.970;4.614;2023-11-21T09:41:21;5.32;;;1.27;;
17494;SDS011;8864;51.970;4.614;2023-11-21T09:43:59;5.53;;;1.33;;
17494;SDS011;8864;51.970;4.614;2023-11-21T09:46:28;7.28;;;1.00;;
17494;SDS011;8864;51.970;4.614;2023-11-21T09:48:57;8.00;;;1.10;;
17494;SDS011;8864;51.970;4.614;2023-11-21T09:51:26;2.13;;;0.90;;
17494;SDS011;8864;51.970;4.614;2023-11-21T09:53:58;7.35;;;1.17;;
17494;SDS011;8864;51.970;4.614;2023-11-21T09:56:27;10.40;;;1.05;;
17494;SDS011;8864;51.970;4.614;2023-11-21T09:58:55;5.82;;;1.15;;
17494;SDS011;8864;51.970;4.614;2023-11-21T10:01:23;5.30;;;1.08;;
17494;SDS011;8864;51.970;4.614;2023-11-21T10:03:53;2.13;;;1.00;;
17494;SDS011;8864;51.970;4.614;2023-11-21T10:06:23;5.32;;;1.10;;
17494;SDS011;8864;51.970;4.614;2023-11-21T10:08:52;5.72;;;1.08;;
17494;SDS011;8864;51.970;4.614;2023-11-21T10:11:21;3.00;;;1.08;;
17494;SDS011;8864;51.970;4.614;2023-11-21T10:13:51;2.30;;;1.02;;
17494;SDS011;8864;51.970;4.614;2023-11-21T10:16:22;3.75;;;0.82;;
17494;SDS011;8864;51.970;4.614;2023-11-21T10:18:53;2.25;;;1.00;;
17494;SDS011;8864;51.970;4.614;2023-11-21T10:21:20;4.93;;;1.42;;
17494;SDS011;8864;51.970;4.614;2023-11-21T10:23:49;2.38;;;1.10;;
17494;SDS011;8864;51.970;4.614;2023-11-21T10:26:19;6.32;;;1.17;;
17494;SDS011;8864;51.970;4.614;2023-11-21T10:28:55;2.88;;;0.98;;
17494;SDS011;8864;51.970;4.614;2023-11-21T10:31:22;4.93;;;1.20;;
17494;SDS011;8864;51.970;4.614;2023-11-21T10:33:50;1.90;;;1.02;;
17494;SDS011;8864;51.970;4.614;2023-11-21T10:36:26;4.43;;;1.10;;
17494;SDS011;8864;51.970;4.614;2023-11-21T10:38:53;2.55;;;0.88;;
17494;SDS011;8864;51.970;4.614;2023-11-21T10:41:22;2.78;;;1.00;;
17494;SDS011;8864;51.970;4.614;2023-11-21T10:43:52;1.80;;;1.00;;
17494;SDS011;8864;51.970;4.614;2023-11-21T10:46:20;1.35;;;0.80;;
17494;SDS011;8864;51.970;4.614;2023-11-21T10:48:51;1.90;;;0.70;;
17494;SDS011;8864;51.970;4.614;2023-11-21T10:51:20;3.03;;;0.80;;
17494;SDS011;8864;51.970;4.614;2023-11-21T10:53:50;1.15;;;0.70;;
17494;SDS011;8864;51.970;4.614;2023-11-21T10:56:18;1.42;;;0.80;;
17494;SDS011;8864;51.970;4.614;2023-11-21T10:58:47;1.50;;;0.88;;
17494;SDS011;8864;51.970;4.614;2023-11-21T11:01:16;3.60;;;0.80;;
17494;SDS011;8864;51.970;4.614;2023-11-21T11:03:46;4.05;;;0.90;;
17494;SDS011;8864;51.970;4.614;2023-11-21T11:06:14;3.60;;;0.80;;
17494;SDS011;8864;51.970;4.614;2023-11-21T11:08:42;4.15;;;0.93;;
17494;SDS011;8864;51.970;4.614;2023-11-21T11:11:12;1.75;;;1.00;;
17494;SDS011;8864;51.970;4.614;2023-11-21T11:13:39;3.58;;;1.00;;
17494;SDS011;8864;51.970;4.614;2023-11-21T11:16:11;1.38;;;0.77;;
17494;SDS011;8864;51.970;4.614;2023-11-21T11:18:42;4.07;;;1.00;;
17494;SDS011;8864;51.970;4.614;2023-11-21T11:21:11;1.55;;;0.73;;
17494;SDS011;8864;51.970;4.614;2023-11-21T11:23:56;1.27;;;0.68;;
17494;SDS011;8864;51.970;4.614;2023-11-21T11:26:39;0.80;;;0.60;;
17494;SDS011;8864;51.970;4.614;2023-11-21T11:29:14;1.45;;;0.73;;
17494;SDS011;8864;51.970;4.614;2023-11-21T11:31:53;5.97;;;1.08;;
17494;SDS011;8864;51.970;4.614;2023-11-21T11:34:31;5.53;;;1.33;;
17494;SDS011;8864;51.970;4.614;2023-11-21T11:37:02;7.18;;;1.10;;
17494;SDS011;8864;51.970;4.614;2023-11-21T11:39:31;1.40;;;0.80;;
17494;SDS011;8864;51.970;4.614;2023-11-21T11:42:04;4.55;;;1.10;;
17494;SDS011;8864;51.970;4.614;2023-11-21T11:47:23;3.42;;;0.80;;
17494;SDS011;8864;51.970;4.614;2023-11-21T11:49:58;2.22;;;1.00;;
17494;SDS011;8864;51.970;4.614;2023-11-21T11:52:32;2.30;;;0.82;;
17494;SDS011;8864;51.970;4.614;2023-11-21T11:55:09;2.35;;;0.80;;
17494;SDS011;8864;51.970;4.614;2023-11-21T12:00:22;3.03;;;0.95;;
17494;SDS011;8864;51.970;4.614;2023-11-21T12:03:02;3.10;;;1.05;;
17494;SDS011;8864;51.970;4.614;2023-11-21T12:05:32;2.25;;;0.93;;
17494;SDS011;8864;51.970;4.614;2023-11-21T12:08:04;4.18;;;0.80;;
17494;SDS011;8864;51.970;4.614;2023-11-21T12:10:35;1.20;;;0.70;;
17494;SDS011;8864;51.970;4.614;2023-11-21T12:13:05;3.13;;;0.77;;
17494;SDS011;8864;51.970;4.614;2023-11-21T12:15:42;2.22;;;0.80;;
17494;SDS011;8864;51.970;4.614;2023-11-21T12:18:11;1.83;;;0.80;;
17494;SDS011;8864;51.970;4.614;2023-11-21T12:20:41;1.75;;;0.90;;
17494;SDS011;8864;51.970;4.614;2023-11-21T12:23:16;4.20;;;1.00;;
17494;SDS011;8864;51.970;4.614;2023-11-21T12:26:00;1.45;;;0.70;;
17494;SDS011;8864;51.970;4.614;2023-11-21T12:28:28;2.53;;;0.88;;
17494;SDS011;8864;51.970;4.614;2023-11-21T12:30:57;3.67;;;1.00;;
17494;SDS011;8864;51.970;4.614;2023-11-21T12:33:25;2.30;;;0.80;;
17494;SDS011;8864;51.970;4.614;2023-11-21T12:35:58;1.38;;;0.70;;
17494;SDS011;8864;51.970;4.614;2023-11-21T12:38:25;2.35;;;0.90;;
17494;SDS011;8864;51.970;4.614;2023-11-21T12:41:00;1.63;;;0.90;;
17494;SDS011;8864;51.970;4.614;2023-11-21T12:43:28;1.17;;;0.60;;
17494;SDS011;8864;51.970;4.614;2023-11-21T12:46:04;1.58;;;0.70;;
17494;SDS011;8864;51.970;4.614;2023-11-21T12:48:32;2.67;;;0.77;;
17494;SDS011;8864;51.970;4.614;2023-11-21T12:51:02;0.77;;;0.60;;
17494;SDS011;8864;51.970;4.614;2023-11-21T12:53:29;1.40;;;0.52;;
17494;SDS011;8864;51.970;4.614;2023-11-21T12:56:02;1.02;;;0.80;;
17494;SDS011;8864;51.970;4.614;2023-11-21T12:58:35;5.95;;;1.27;;
17494;SDS011;8864;51.970;4.614;2023-11-21T13:01:04;1.92;;;0.90;;
17494;SDS011;8864;51.970;4.614;2023-11-21T13:03:37;10.82;;;1.42;;
17494;SDS011;8864;51.970;4.614;2023-11-21T13:06:05;1.95;;;1.00;;
17494;SDS011;8864;51.970;4.614;2023-11-21T13:08:33;3.13;;;1.05;;
17494;SDS011;8864;51.970;4.614;2023-11-21T13:11:04;3.47;;;0.95;;
17494;SDS011;8864;51.970;4.614;2023-11-21T13:13:32;3.65;;;0.90;;
17494;SDS011;8864;51.970;4.614;2023-11-21T13:16:01;6.65;;;0.77;;
17494;SDS011;8864;51.970;4.614;2023-11-21T13:18:30;2.38;;;0.93;;
17494;SDS011;8864;51.970;4.614;2023-11-21T13:20:57;3.85;;;1.10;;
17494;SDS011;8864;51.970;4.614;2023-11-21T13:23:26;3.25;;;1.10;;
17494;SDS011;8864;51.970;4.614;2023-11-21T13:25:54;3.15;;;1.15;;
17494;SDS011;8864;51.970;4.614;2023-11-21T13:28:21;3.08;;;0.88;;
17494;SDS011;8864;51.970;4.614;2023-11-21T13:30:49;2.92;;;0.90;;
17494;SDS011;8864;51.970;4.614;2023-11-21T13:33:19;1.77;;;0.90;;
17494;SDS011;8864;51.970;4.614;2023-11-21T13:35:52;2.55;;;0.82;;
17494;SDS011;8864;51.970;4.614;2023-11-21T13:38:21;2.05;;;0.93;;
17494;SDS011;8864;51.970;4.614;2023-11-21T13:40:49;3.47;;;0.85;;
17494;SDS011;8864;51.970;4.614;2023-11-21T13:43:19;2.60;;;1.23;;
17494;SDS011;8864;51.970;4.614;2023-11-21T13:45:49;1.60;;;0.90;;
17494;SDS011;8864;51.970;4.614;2023-11-21T13:48:24;1.35;;;0.80;;
17494;SDS011;8864;51.970;4.614;2023-11-21T13:50:57;1.95;;;0.90;;
17494;SDS011;8864;51.970;4.614;2023-11-21T13:53:27;1.70;;;0.65;;
17494;SDS011;8864;51.970;4.614;2023-11-21T13:55:54;1.73;;;0.90;;
17494;SDS011;8864;51.970;4.614;2023-11-21T13:58:22;2.25;;;0.85;;
17494;SDS011;8864;51.970;4.614;2023-11-21T14:01:00;2.08;;;0.80;;
17494;SDS011;8864;51.970;4.614;2023-11-21T14:03:32;2.15;;;0.93;;
17494;SDS011;8864;51.970;4.614;2023-11-21T14:06:08;0.80;;;0.77;;
17494;SDS011;8864;51.970;4.614;2023-11-21T14:08:40;1.33;;;0.85;;
17494;SDS011;8864;51.970;4.614;2023-11-21T14:11:07;1.20;;;0.90;;
17494;SDS011;8864;51.970;4.614;2023-11-21T14:13:36;2.53;;;0.77;;
17494;SDS011;8864;51.970;4.614;2023-11-21T14:16:04;2.63;;;0.68;;
17494;SDS011;8864;51.970;4.614;2023-11-21T14:18:36;2.15;;;0.98;;
17494;SDS011;8864;51.970;4.614;2023-11-21T14:21:15;1.67;;;0.90;;
17494;SDS011;8864;51.970;4.614;2023-11-21T14:23:42;1.65;;;1.02;;
17494;SDS011;8864;51.970;4.614;2023-11-21T14:26:10;1.50;;;1.00;;
17494;SDS011;8864;51.970;4.614;2023-11-21T14:28:39;1.88;;;1.00;;
17494;SDS011;8864;51.970;4.614;2023-11-21T14:31:06;1.45;;;0.80;;
17494;SDS011;8864;51.970;4.614;2023-11-21T14:33:39;1.05;;;0.85;;
17494;SDS011;8864;51.970;4.614;2023-11-21T14:36:07;4.07;;;0.90;;
17494;SDS011;8864;51.970;4.614;2023-11-21T14:38:35;2.47;;;0.98;;
17494;SDS011;8864;51.970;4.614;2023-11-21T14:41:02;2.88;;;0.90;;
17494;SDS011;8864;51.970;4.614;2023-11-21T14:43:32;2.45;;;1.20;;
17494;SDS011;8864;51.970;4.614;2023-11-21T14:46:00;2.08;;;1.05;;
17494;SDS011;8864;51.970;4.614;2023-11-21T14:48:31;3.38;;;0.80;;
17494;SDS011;8864;51.970;4.614;2023-11-21T14:51:08;2.10;;;1.00;;
17494;SDS011;8864;51.970;4.614;2023-11-21T14:53:56;1.48;;;0.85;;
17494;SDS011;8864;51.970;4.614;2023-11-21T14:56:31;2.45;;;1.15;;
17494;SDS011;8864;51.970;4.614;2023-11-21T14:59:02;1.90;;;0.80;;
17494;SDS011;8864;51.970;4.614;2023-11-21T15:01:34;1.33;;;1.00;;
17494;SDS011;8864;51.970;4.614;2023-11-21T15:04:09;1.77;;;0.70;;
17494;SDS011;8864;51.970;4.614;2023-11-21T15:06:47;1.63;;;1.00;;
17494;SDS011;8864;51.970;4.614;2023-11-21T15:09:14;1.02;;;0.85;;
17494;SDS011;8864;51.970;4.614;2023-11-21T15:12:01;1.50;;;0.85;;
17494;SDS011;8864;51.970;4.614;2023-11-21T15:14:39;1.33;;;0.95;;